Rachel, Nevada Weather observations

Data are for observation ending at time listed.
 Day   Time    Ave.   Ave.  Ave.  Vector   Max.   Stn.    Total    Solar   Ave.  
  of    of     Air    Rel.  Wind   Wind    Wind   Baro.  Precip.   Rad.    Soil  
Year   Day     Temp.  Hum.  Speed  Dir.    Gust   Pres.                    Temp. 
2014   (PST)    F      %     mph   deg.    mph     mb.     in.     W/m2     F   
------------------------------------------------------------------------------
 107    2:50   45.4    40    5.0   255      7.6   847.3    0.00       0    54.9
 107    3:00   44.8    40    4.4   256      8.2   847.4    0.00       0    54.8
 107    3:10   45.4    40    3.9   233      6.2   847.5    0.00       0    54.6
 107    3:20   46.2    41    6.6   257      9.3   847.5    0.00       0    54.5
 107    3:30   45.5    42    3.9   231      8.9   847.5    0.00       0    54.4
 107    3:40   45.4    43    5.0   252      6.6   847.7    0.00       0    54.2
 107    3:50   45.4    43    5.0   252      7.7   847.7    0.00       0    54.1
 107    4:00   44.5    44    3.5   256      5.2   847.7    0.00       0    54.0
 107    4:10   43.9    45    3.7   250      5.8   847.8    0.00       0    53.9
 107    4:20   43.4    45    2.3   252      4.1   847.9    0.00       0    53.7
 107    4:30   42.8    44    0.7   240      2.2   847.8    0.00       0    53.3
 107    4:40   42.8    42    1.7   232      4.6   847.8    0.00       0    53.1
 107    4:50   41.4    44    4.1   162      5.3   848.0    0.00       0    52.7
 107    5:00   40.2    45    4.4   158      5.8   848.1    0.00       0    52.5
 107    5:10   39.7    46    3.1   160      4.5   848.0    0.00       3    52.2
 107    5:20   39.7    46    2.2   157      3.4   848.0    0.00       6    52.0
 107    5:30   40.0    46    2.6   155      4.5   848.1    0.00      18    52.1
 107    5:40   40.6    45    3.1   158      4.9   848.2    0.00      41    52.1
 107    5:50   42.0    44    0.6   154      1.4   848.4    0.00      69    52.2
 107    6:00   43.8    41    1.3   165      2.3   848.6    0.00      93    52.7
 107    6:10   45.4    40    1.4   163      2.6   848.9    0.00     118    53.1
 107    6:20   47.5    36    0.3   154      1.5   849.2    0.00     142    53.6
 107    6:30   47.9    36    0.2   154      0.9   849.4    0.00     167    53.9
 107    6:40   50.0    34    0.6   154      1.3   849.5    0.00     193    53.9
 107    6:50   51.9    33    0.3   154      1.2   849.6    0.00     218    54.2
 107    7:00   54.4    31    0.5   168      1.7   850.0    0.00     241    54.5
 107    7:10   53.2    33    1.0   182      2.2   850.1    0.00     269    55.3
 107    7:20   51.8    36    3.1   312      4.4   850.2    0.00     295    55.9
 107    7:30   52.8    34    2.8   306      4.2   850.2    0.00     320    56.4
 107    7:40   54.2    32    2.0   307      3.8   850.2    0.00     337    57.1
 107    7:50   55.9    31    1.8   312      3.8   850.2    0.00     353    57.8
 107    8:00   57.1    29    2.0   304      5.3   850.5    0.00     381    58.5
 107    8:10   57.5    28    2.3   291      5.0   850.5    0.00     405    59.1
 107    8:20   58.7    27    2.0   337      4.5   850.4    0.00     427    59.7
 107    8:30   59.1    26    2.4   326      5.0   850.5    0.00     445    60.3
 107    8:40   60.3    25    1.5   273      3.4   850.7    0.00     471    60.9
 107    8:50   60.9    25    1.1   341      3.8   850.7    0.00     487    61.6
 107    9:00   62.3    24    1.2   354      3.4   850.7    0.00     516    62.1
 107    9:10   63.5    23    1.1    98      3.4   850.8    0.00     544    62.6
 107    9:20   64.3    22    3.6    34      7.6   850.7    0.00     560    63.3
 107    9:30   64.6    22    5.2    26      9.0   850.8    0.00     552    63.6
 107    9:40   65.4    22    4.1    19      9.5   850.8    0.00     566    63.7
 107    9:50   66.4    21    4.8    13     12.5   850.8    0.00     601    63.7
 107   10:00   68.8    19    3.2    49      7.0   850.7    0.00     616    63.6
 107   10:10   69.6    18    2.4    20      6.3   851.0    0.00     618    63.9
 107   10:20   71.0    17    6.5   198     14.6   851.0    0.00     625    64.2
 107   10:30   71.0    17    8.4   217     16.6   850.9    0.00     635    64.6
 107   10:40   71.6    17    5.9   199     14.0   850.9    0.00     637    64.8
 107   10:50   71.6    16   12.7   166     17.7   850.8    0.00     638    65.5
 107   11:00   72.0    15   15.2   157     21.6   850.6    0.00     666    65.9
 107   11:10   72.4    14   15.4   151     22.4   850.6    0.00     674    66.5
 107   11:20   72.9    14   16.4   156     22.5   850.4    0.00     673    67.0
 107   11:30   72.9    14   14.9   168     22.1   850.3    0.00     680    67.3
 107   11:40   73.4    14   18.0   150     24.5   850.2    0.00     680    67.5
 107   11:50   73.9    14   16.5   160     27.2   850.1    0.00     680    67.9
 107   12:00   73.5    14   14.9   152     20.8   849.8    0.00     680    68.1
 107   12:10   74.9    13   15.3   170     26.5   849.7    0.00     675    68.3
 107   12:20   75.8    13   15.6   187     30.2   849.6    0.00     671    68.5
 107   12:30   76.6    13   15.2   230     24.2   849.6    0.00     669    68.6
 107   12:40   76.8    13   14.9   240     24.9   849.6    0.00     663    68.5
 107   12:50   76.8    12   14.0   236     21.0   849.4    0.00     657    68.5
 107   13:00   77.1    12   15.3   219     27.5   848.9    0.00     649    68.5
 107   13:10   77.0    12   15.9   206     25.9   848.4    0.00     627    68.7
 107   13:20   76.9    12   17.7   199     29.7   849.0    0.00     627    68.9
 107   13:30   77.2    12   19.9   215     29.8   849.0    0.00     631    69.1
 107   13:40   76.9    12   14.0   200     26.8   848.9    0.00     594    69.2
 107   13:50   77.6    12   17.8   233     27.2   848.4    0.00     580    69.4
 107   14:00   77.4    12   17.3   225     34.0   848.5    0.00     536    69.3
 107   14:10   77.4    12   18.3   208     25.8   848.2    0.00     476    69.4
 107   14:20   77.4    12   17.9   227     29.9   847.9    0.00     427    69.5
 107   14:30   77.6    12   18.1   213     27.2   847.9    0.00     495    69.6
 107   14:40   77.8    11   19.8   221     31.6   848.0    0.00     459    69.7
 107   14:50   76.7    12   14.7   230     24.7   848.0    0.00     402    69.7
 107   15:00   77.3    12   16.3   226     25.8   847.8    0.00     436    69.6
 107   15:10   77.8    11   16.8   209     24.3   847.8    0.00     462    69.7
 107   15:20   77.1    12   18.0   210     28.1   847.7    0.00     333    69.9
 107   15:30   77.1    12   14.0   208     21.7   847.6    0.00     399    69.8
 107   15:40   77.5    12   18.8   210     31.9   847.5    0.00     384    70.0
 107   15:50   77.6    12   17.3   216     31.8   847.4    0.00     341    70.0
 107   16:00   77.2    12   19.2   220     31.4   847.3    0.00     304    70.0
 107   16:10   76.6    12   19.9   236     30.7   847.3    0.00     256    69.9
 107   16:20   76.0    12   19.5   229     31.1   847.2    0.00     199    69.9
 107   16:30   75.7    12   20.2   235     32.5   847.2    0.00     212    69.8
 107   16:40   75.1    12   16.0   234     25.1   847.2    0.00     125    69.7
 107   16:50   74.4    13   16.2   232     27.0   847.1    0.00      76    69.4
 107   17:00   74.0    13   14.9   235     24.8   847.0    0.00      84    69.4
 107   17:10   73.8    13   16.6   234     24.3   846.9    0.00      90    69.2
 107   17:20   74.2    13   16.4   231     27.7   846.9    0.00     160    69.2
 107   17:30   74.4    13   18.0   222     24.7   846.8    0.00     147    69.1
 107   17:40   74.2    13   17.9   225     27.6   846.8    0.00     106    69.1
 107   17:50   73.2    13   18.3   228     30.2   846.8    0.00      49    69.0
 107   18:00   72.5    13   16.4   237     25.9   846.7    0.00      27    68.8
 107   18:10   71.8    14   17.3   234     26.2   846.7    0.00      15    68.8
 107   18:20   71.0    14   14.5   229     22.7   846.8    0.00       6    68.4
 107   18:30   70.7    14   12.9   231     18.9   846.9    0.00       3    68.3
 107   18:40   69.9    14   12.1   222     18.2   847.0    0.00       0    68.0
 107   18:50   70.0    15   12.2   222     18.8   846.9    0.00       0    67.8
 107   19:00   69.9    15   13.2   227     22.1   846.9    0.00       0    67.6
 107   19:10   69.9    15   12.6   223     18.9   847.0    0.00       0    67.5
 107   19:20   69.8    15   15.4   220     22.4   847.0    0.00       0    67.4
 107   19:30   69.8    16   14.4   219     22.4   847.0    0.00       0    67.3
 107   19:40   69.4    16   12.6   216     22.3   847.1    0.00       0    67.2
 107   19:50   68.7    16   11.6   215     17.7   847.2    0.00       0    66.9
 107   20:00   69.4    15   12.3   224     18.6   847.4    0.00       0    66.8
 107   20:10   68.0    17    9.4   233     13.0   847.5    0.00       0    66.8
 107   20:20   67.7    16   11.5   225     19.0   847.4    0.00       0    66.5
 107   20:30   68.2    16   12.3   218     17.3   847.3    0.00       0    66.4
 107   20:40   67.8    16   11.9   212     17.0   847.2    0.00       0    66.3
 107   20:50   67.5    16   13.2   210     20.4   847.2    0.00       0    66.0
 107   21:00   67.6    16   14.4   214     20.6   847.2    0.00       0    65.9
 107   21:10   67.6    15   16.2   216     22.3   847.2    0.00       0    65.8
 107   21:20   67.6    15   16.8   216     23.0   847.2    0.00       0    65.7
 107   21:30   67.8    15   19.0   216     25.1   847.3    0.00       0    65.6
 107   21:40   67.3    15   17.3   220     22.1   847.3    0.00       0    65.5
 107   21:50   66.8    16   15.2   225     21.9   847.3    0.00       0    65.4
 107   22:00   66.2    16   14.2   232     19.7   847.3    0.00       0    65.2
 107   22:10   65.9    17   13.2   237     19.6   847.1    0.00       0    65.1
 107   22:20   66.2    17   14.4   236     24.5   847.0    0.00       0    65.0
 107   22:30   66.0    17   14.1   237     25.9   846.9    0.00       0    64.9
 107   22:40   66.0    17   14.1   237     21.9   846.9    0.00       0    64.8
 107   22:50   65.5    17   11.4   241     19.2   846.8    0.00       0    64.7
 107   23:00   65.1    18    9.5   234     15.8   846.9    0.00       0    64.5
 107   23:10   64.8    18    8.2   190     13.1   847.0    0.00       0    64.4
 107   23:20   65.3    17    9.9   198     14.0   847.1    0.00       0    64.2
 107   23:30   64.9    17    7.2   205      9.9   847.2    0.00       0    64.2
 107   23:40   64.1    17    7.8   200     11.2   847.3    0.00       0    64.0
 107   23:50   62.1    18    6.1   168      8.0   847.4    0.00       0    63.8
 108    0:00   61.4    18    8.3   161     11.2   847.3    0.00       0    63.5
 108    0:10   61.3    18   11.9   158     16.3   847.1    0.00       0    63.3
 108    0:20   61.5    18   14.9   156     17.4   846.7    0.00       0    63.2
 108    0:30   62.1    18   14.5   165     17.6   846.6    0.00       0    63.1
 108    0:40   62.2    18   12.5   177     16.4   846.6    0.00       0    62.9
 108    0:50   61.5    19    9.3   180     14.7   846.4    0.00       0    62.8
 108    1:00   61.8    19   10.8   177     14.9   846.4    0.00       0    62.7
 108    1:10   62.6    19   11.1   182     15.0   846.4    0.00       0    62.6
 108    1:20   62.7    19    9.6   186     13.6   846.4    0.00       0    62.6
 108    1:30   62.9    19    5.5   198      9.6   846.4    0.00       0    62.5
 108    1:40   62.8    19    4.1   130      6.1   846.4    0.00       0    62.5
 108    1:50   62.9    19    2.5   205      6.3   846.4    0.00       0    62.4
 108    2:00   63.0    19    2.6    50      5.0   846.5    0.00       0    62.3
 108    2:10   62.3    20    6.6    50      9.6   846.4    0.00       0    62.1
 108    2:20   61.7    21   10.2    85     14.2   846.3    0.00       0    62.0
 108    2:30   62.9    21    8.8   101     18.5   846.2    0.00       0    62.0
 108    2:40   62.7    21    1.8   182      6.9   846.4    0.00       0    62.0

Return to St. George, Utah graphs page.


Western Regional Climate Center,wrcc@dri.edu